| time (UTC) | temp F | wind direction | speed MPH | gust MPH | rain 1hr in | rain 24hr in | rain mn in | humidity % | barometer mb |
| 20260504215518 | 73 | 204 | 4.0 | 15.0 | 0.00 | 0.00 | 0.00 | 34 | 1004.0 |
| 20260504215242 | 73 | 217 | 8.0 | 12.0 | 0.00 | 0.00 | 0.00 | 32 | 1004.0 |
| 20260504214737 | 73 | 223 | 10.0 | 16.0 | 0.00 | 0.00 | 0.00 | 31 | 1003.9 |
| 20260504214017 | 73 | 243 | 8.0 | 16.0 | 0.00 | 0.00 | 0.00 | 32 | 1003.8 |
| 20260504213517 | 74 | 207 | 6.0 | 13.0 | 0.00 | 0.00 | 0.00 | 32 | 1003.9 |
| 20260504213016 | 73 | 227 | 3.0 | 13.0 | 0.00 | 0.00 | 0.00 | 32 | 1004.1 |
| 20260504212517 | 73 | 205 | 10.0 | 13.0 | 0.00 | 0.00 | 0.00 | 32 | 1003.8 |
| 20260504212016 | 74 | 212 | 5.0 | 12.0 | 0.00 | 0.00 | 0.00 | 34 | 1004.0 |
| 20260504211517 | 73 | 243 | 6.0 | 16.0 | 0.00 | 0.00 | 0.00 | 33 | 1004.1 |
| 20260504211016 | 73 | 215 | 9.0 | 17.0 | 0.00 | 0.00 | 0.00 | 35 | 1004.0 |
| 20260504210516 | 73 | 188 | 4.0 | 17.0 | 0.00 | 0.00 | 0.00 | 33 | 1004.0 |
| 20260504210016 | 73 | 246 | 5.0 | 17.0 | 0.00 | 0.00 | 0.00 | 33 | 1004.2 |
| 20260504205515 | 73 | 229 | 5.0 | 18.0 | 0.00 | 0.00 | 0.00 | 33 | 1004.3 |
| 20260504205015 | 73 | 236 | 7.0 | 20.0 | 0.00 | 0.00 | 0.00 | 32 | 1004.2 |
| 20260504204515 | 73 | 225 | 16.0 | 20.0 | 0.00 | 0.00 | 0.00 | 32 | 1004.0 |
| 20260504204016 | 74 | 263 | 5.0 | 18.0 | 0.00 | 0.00 | 0.00 | 33 | 1004.1 |
| 20260504203514 | 73 | 278 | 14.0 | 16.0 | 0.00 | 0.00 | 0.00 | 33 | 1004.3 |
| 20260504203014 | 74 | 210 | 7.0 | 17.0 | 0.00 | 0.00 | 0.00 | 34 | 1004.3 |
| 20260504202514 | 73 | 185 | 3.0 | 19.0 | 0.00 | 0.00 | 0.00 | 34 | 1004.3 |
| 20260504202014 | 74 | 246 | 7.0 | 19.0 | 0.00 | 0.00 | 0.00 | 33 | 1004.3 |
| 20260504201514 | 74 | 231 | 8.0 | 19.0 | 0.00 | 0.00 | 0.00 | 34 | 1004.3 |
| 20260504201235 | 74 | 226 | 5.0 | 15.0 | 0.00 | 0.00 | 0.00 | 35 | 1004.3 |
| 20260504200513 | 73 | 216 | 4.0 | 19.0 | 0.00 | 0.00 | 0.00 | 37 | 1004.5 |
| 20260504200014 | 73 | 215 | 6.0 | 19.0 | 0.00 | 0.00 | 0.00 | 37 | 1004.7 |
| 20260504195735 | 73 | 200 | 12.0 | 21.0 | 0.00 | 0.00 | 0.00 | 36 | 1004.5 |
| 20260504195013 | 73 | 215 | 6.0 | 22.0 | 0.00 | 0.00 | 0.00 | 37 | 1005.0 |
| 20260504194513 | 73 | 261 | 8.0 | 22.0 | 0.00 | 0.00 | 0.00 | 35 | 1004.8 |
| 20260504194012 | 72 | 211 | 11.0 | 22.0 | 0.00 | 0.00 | 0.00 | 35 | 1004.8 |
| 20260504193743 | 72 | 229 | 12.0 | 17.0 | 0.00 | 0.00 | 0.00 | 37 | 1005.1 |
| 20260504193012 | 73 | 218 | 12.0 | 17.0 | 0.00 | 0.00 | 0.00 | 37 | 1005.2 |
| 20260504192512 | 72 | 213 | 9.0 | 17.0 | 0.00 | 0.00 | 0.00 | 37 | 1005.1 |
| 20260504192230 | 72 | 218 | 10.0 | 16.0 | 0.00 | 0.00 | 0.00 | 38 | 1005.1 |
| 20260504191511 | 72 | 223 | 9.0 | 14.0 | 0.00 | 0.00 | 0.00 | 38 | 1005.3 |
| 20260504191012 | 73 | 252 | 5.0 | 20.0 | 0.00 | 0.00 | 0.00 | 38 | 1005.5 |
| 20260504190511 | 72 | 224 | 2.0 | 20.0 | 0.00 | 0.00 | 0.00 | 39 | 1005.4 |
| 20260504190010 | 71 | 197 | 2.0 | 19.0 | 0.00 | 0.00 | 0.00 | 39 | 1005.5 |
| 20260504185510 | 71 | 205 | 5.0 | 21.0 | 0.00 | 0.00 | 0.00 | 40 | 1005.5 |
| 20260504185010 | 71 | 200 | 10.0 | 24.0 | 0.00 | 0.00 | 0.00 | 38 | 1005.7 |
| 20260504184510 | 71 | 216 | 9.0 | 24.0 | 0.00 | 0.00 | 0.00 | 39 | 1005.7 |
| 20260504184010 | 71 | 244 | 13.0 | 21.0 | 0.00 | 0.00 | 0.00 | 39 | 1005.7 |
| 20260504183509 | 70 | 246 | 6.0 | 21.0 | 0.00 | 0.00 | 0.00 | 41 | 1005.7 |
| 20260504183009 | 70 | 232 | 12.0 | 18.0 | 0.00 | 0.00 | 0.00 | 40 | 1005.8 |
| 20260504182509 | 70 | 205 | 9.0 | 18.0 | 0.00 | 0.00 | 0.00 | 40 | 1006.0 |
| 20260504182009 | 70 | 226 | 8.0 | 19.0 | 0.00 | 0.00 | 0.00 | 41 | 1006.0 |
| 20260504181508 | 71 | 213 | 9.0 | 19.0 | 0.00 | 0.00 | 0.00 | 41 | 1006.0 |
| 20260504181008 | 70 | 215 | 10.0 | 20.0 | 0.00 | 0.00 | 0.00 | 41 | 1006.1 |
| 20260504180508 | 70 | 240 | 8.0 | 20.0 | 0.00 | 0.00 | 0.00 | 39 | 1006.1 |
| 20260504180009 | 70 | 234 | 11.0 | 24.0 | 0.00 | 0.00 | 0.00 | 42 | 1006.2 |
| 20260504175734 | 70 | 241 | 9.0 | 24.0 | 0.00 | 0.00 | 0.00 | 44 | 1006.2 |
| 20260504175008 | 70 | 208 | 14.0 | 24.0 | 0.00 | 0.00 | 0.00 | 42 | 1006.2 |
| 20260504174509 | 70 | 225 | 8.0 | 16.0 | 0.00 | 0.00 | 0.00 | 44 | 1006.1 |
| 20260504174007 | 69 | 217 | 9.0 | 25.0 | 0.00 | 0.00 | 0.00 | 43 | 1006.3 |
| 20260504173507 | 69 | 217 | 6.0 | 25.0 | 0.00 | 0.00 | 0.00 | 44 | 1006.3 |
| 20260504173007 | 69 | 216 | 13.0 | 21.0 | 0.00 | 0.00 | 0.00 | 43 | 1006.4 |
| 20260504172507 | 69 | 219 | 9.0 | 21.0 | 0.00 | 0.00 | 0.00 | 43 | 1006.4 |
| 20260504172230 | 68 | 241 | 5.0 | 28.0 | 0.00 | 0.00 | 0.00 | 45 | 1006.4 |
| 20260504171507 | 68 | 220 | 10.0 | 28.0 | 0.00 | 0.00 | 0.00 | 44 | 1006.4 |
| 20260504171006 | 67 | 212 | 17.0 | 25.0 | 0.00 | 0.00 | 0.00 | 45 | 1006.4 |
| 20260504170506 | 67 | 215 | 10.0 | 22.0 | 0.00 | 0.00 | 0.00 | 45 | 1006.4 |
| 20260504151001 | 62 | 222 | 10.0 | 21.0 | 0.00 | 0.00 | 0.00 | 48 | 1007.3 |
| 20260504150501 | 61 | 220 | 4.0 | 21.0 | 0.00 | 0.00 | 0.00 | 50 | 1007.5 |
| 20260504150231 | 62 | 213 | 12.0 | 21.0 | 0.00 | 0.00 | 0.00 | 49 | 1007.5 |
| 20260504140959 | 60 | 194 | 8.0 | 28.0 | 0.00 | 0.00 | 0.00 | 51 | 1007.4 |
| 20260504140458 | 60 | 223 | 7.0 | 28.0 | 0.00 | 0.00 | 0.00 | 50 | 1007.4 |
| 20260504140218 | 60 | 207 | 20.0 | 28.0 | 0.00 | 0.00 | 0.00 | 49 | 1007.5 |
| 20260504130456 | 58 | 195 | 9.0 | 24.0 | 0.00 | 0.00 | 0.00 | 50 | 1007.8 |
| 20260504110451 | 52 | 201 | 8.0 | 17.0 | 0.00 | 0.00 | 0.00 | 55 | 1007.9 |
| 20260504100449 | 51 | 191 | 11.0 | 16.0 | 0.00 | 0.00 | 0.00 | 53 | 1007.6 |
| 20260504081544 | 49 | 205 | 5.0 | 14.0 | 0.00 | 0.00 | 0.00 | 56 | 1008.2 |
| 20260504081304 | 49 | 231 | 9.0 | 14.0 | 0.00 | 0.00 | 0.00 | 56 | 1008.2 |
| 20260504081037 | 49 | 205 | 6.0 | 14.0 | 0.00 | 0.00 | 0.00 | 56 | 1008.5 |
| 20260504050537 | 51 | 199 | 5.0 | 13.0 | 0.00 | 0.00 | 0.00 | 52 | 1009.8 |
| 20260504045536 | 51 | 216 | 3.0 | 10.0 | 0.00 | 0.00 | 0.00 | 52 | 1010.0 |
| 20260504045036 | 52 | 211 | 6.0 | 10.0 | 0.00 | 0.00 | 0.00 | 51 | 1009.7 |
| 20260504044535 | 52 | 223 | 4.0 | 13.0 | 0.00 | 0.00 | 0.00 | 51 | 1009.8 |
| 20260504044036 | 52 | 221 | 6.0 | 14.0 | 0.00 | 0.00 | 0.00 | 50 | 1009.7 |
| 20260504043536 | 53 | 237 | 9.0 | 15.0 | 0.00 | 0.00 | 0.00 | 49 | 1009.8 |
| 20260504043035 | 53 | 198 | 9.0 | 15.0 | 0.00 | 0.00 | 0.00 | 49 | 1009.6 |
| 20260504042535 | 53 | 213 | 8.0 | 15.0 | 0.00 | 0.00 | 0.00 | 49 | 1009.5 |
| 20260504042035 | 53 | 216 | 7.0 | 15.0 | 0.00 | 0.00 | 0.00 | 49 | 1009.7 |
| 20260504041534 | 53 | 250 | 4.0 | 15.0 | 0.00 | 0.00 | 0.00 | 48 | 1009.5 |
| 20260504041303 | 53 | 195 | 8.0 | 14.0 | 0.00 | 0.00 | 0.00 | 49 | 1009.7 |
| 20260504040534 | 53 | 216 | 6.0 | 14.0 | 0.00 | 0.00 | 0.00 | 48 | 1009.7 |
| 20260504040034 | 53 | 203 | 8.0 | 14.0 | 0.00 | 0.00 | 0.00 | 48 | 1009.8 |
| 20260504035534 | 53 | 196 | 8.0 | 15.0 | 0.00 | 0.00 | 0.00 | 48 | 1009.7 |
| 20260504035034 | 53 | 224 | 3.0 | 18.0 | 0.00 | 0.00 | 0.00 | 48 | 1009.8 |
| 20260504034533 | 54 | 218 | 6.0 | 25.0 | 0.00 | 0.00 | 0.00 | 47 | 1009.5 |
| 20260504034033 | 54 | 215 | 10.0 | 25.0 | 0.00 | 0.00 | 0.00 | 47 | 1009.8 |
| 20260504033533 | 53 | 163 | 4.0 | 15.0 | 0.00 | 0.00 | 0.00 | 48 | 1009.7 |
| 20260504033033 | 54 | 202 | 4.0 | 16.0 | 0.00 | 0.00 | 0.00 | 48 | 1009.8 |
| 20260504032532 | 54 | 241 | 10.0 | 16.0 | 0.00 | 0.00 | 0.00 | 47 | 1009.6 |
| 20260504032032 | 54 | 227 | 11.0 | 19.0 | 0.00 | 0.00 | 0.00 | 47 | 1009.6 |
| 20260504031750 | 54 | 225 | 11.0 | 19.0 | 0.00 | 0.00 | 0.00 | 47 | 1009.6 |
| 20260504031031 | 54 | 220 | 9.0 | 17.0 | 0.00 | 0.00 | 0.00 | 47 | 1009.5 |
| 20260504030531 | 53 | 189 | 3.0 | 15.0 | 0.00 | 0.00 | 0.00 | 48 | 1009.6 |
| 20260504030032 | 53 | 213 | 8.0 | 15.0 | 0.00 | 0.00 | 0.00 | 48 | 1009.6 |
| 20260504025531 | 53 | 229 | 9.0 | 16.0 | 0.00 | 0.00 | 0.00 | 48 | 1009.5 |
| 20260504025031 | 53 | 186 | 8.0 | 16.0 | 0.00 | 0.00 | 0.00 | 49 | 1009.6 |
| 20260504024751 | 53 | 237 | 11.0 | 15.0 | 0.00 | 0.00 | 0.00 | 49 | 1009.6 |
| 20260504024030 | 53 | 200 | 4.0 | 19.0 | 0.00 | 0.00 | 0.00 | 50 | 1009.6 |
| 20260504023530 | 53 | 268 | 2.0 | 19.0 | 0.00 | 0.00 | 0.00 | 50 | 1009.8 |
| 20260504023030 | 53 | 224 | 14.0 | 19.0 | 0.00 | 0.00 | 0.00 | 50 | 1009.8 |
| 20260504022530 | 53 | 195 | 3.0 | 17.0 | 0.00 | 0.00 | 0.00 | 50 | 1009.9 |
| 20260504022029 | 53 | 216 | 7.0 | 16.0 | 0.00 | 0.00 | 0.00 | 50 | 1009.8 |
| 20260504021529 | 53 | 194 | 4.0 | 15.0 | 0.00 | 0.00 | 0.00 | 49 | 1009.9 |
| 20260504021247 | 53 | 212 | 2.0 | 15.0 | 0.00 | 0.00 | 0.00 | 49 | 1009.9 |
| 20260504020529 | 53 | 190 | 4.0 | 20.0 | 0.00 | 0.00 | 0.00 | 49 | 1009.9 |
| 20260504020029 | 53 | 191 | 6.0 | 20.0 | 0.00 | 0.00 | 0.00 | 49 | 1010.1 |
| 20260504015749 | 53 | 237 | 5.0 | 16.0 | 0.00 | 0.00 | 0.00 | 49 | 1009.9 |
| 20260504015028 | 53 | 229 | 6.0 | 14.0 | 0.00 | 0.00 | 0.00 | 49 | 1010.1 |
| 20260504014528 | 53 | 220 | 2.0 | 13.0 | 0.00 | 0.00 | 0.00 | 50 | 1010.2 |
| 20260504014250 | 53 | 207 | 10.0 | 18.0 | 0.00 | 0.00 | 0.00 | 50 | 1010.1 |
| 20260504013527 | 53 | 204 | 8.0 | 18.0 | 0.00 | 0.00 | 0.00 | 50 | 1010.1 |
| 20260504013027 | 53 | 224 | 5.0 | 18.0 | 0.00 | 0.00 | 0.00 | 50 | 1010.2 |
| 20260504012530 | 52 | 214 | 8.0 | 13.0 | 0.00 | 0.00 | 0.00 | 52 | 1010.4 |
| 20260504012027 | 52 | 216 | 6.0 | 13.0 | 0.00 | 0.00 | 0.00 | 53 | 1010.1 |
| 20260504011527 | 52 | 199 | 5.0 | 15.0 | 0.00 | 0.00 | 0.00 | 52 | 1010.3 |
| 20260504011026 | 52 | 200 | 5.0 | 15.0 | 0.00 | 0.00 | 0.00 | 52 | 1010.4 |
| 20260504010526 | 52 | 252 | 7.0 | 18.0 | 0.00 | 0.00 | 0.00 | 52 | 1010.1 |
| 20260504010026 | 52 | 207 | 6.0 | 18.0 | 0.00 | 0.00 | 0.00 | 52 | 1010.1 |
| 20260504005526 | 52 | 205 | 4.0 | 15.0 | 0.00 | 0.00 | 0.00 | 52 | 1010.2 |
| 20260504005249 | 52 | 186 | 5.0 | 15.0 | 0.00 | 0.00 | 0.00 | 53 | 1010.0 |
| 20260504004755 | 52 | 227 | 8.0 | 15.0 | 0.00 | 0.00 | 0.00 | 53 | 1010.2 |
| 20260504004255 | 52 | 180 | 2.0 | 15.0 | 0.00 | 0.00 | 0.00 | 53 | 1010.3 |
| 20260504003525 | 52 | 218 | 10.0 | 13.0 | 0.00 | 0.00 | 0.00 | 55 | 1010.2 |
| 20260504003257 | 52 | 216 | 5.0 | 14.0 | 0.00 | 0.00 | 0.00 | 54 | 1010.0 |
| 20260504002525 | 52 | 205 | 6.0 | 14.0 | 0.00 | 0.00 | 0.00 | 54 | 1010.1 |
| 20260504002246 | 52 | 242 | 5.0 | 15.0 | 0.00 | 0.00 | 0.00 | 57 | 1010.0 |
| 20260504001746 | 52 | 253 | 3.0 | 15.0 | 0.00 | 0.00 | 0.00 | 57 | 1010.1 |
| 20260504001024 | 52 | 202 | 4.0 | 13.0 | 0.00 | 0.00 | 0.00 | 57 | 1010.4 |
| 20260504000741 | 52 | 143 | 4.0 | 14.0 | 0.00 | 0.00 | 0.00 | 58 | 1010.2 |
| 20260504000024 | 52 | 206 | 5.0 | 14.0 | 0.00 | 0.00 | 0.00 | 58 | 1010.3 |
| 20260503235747 | 52 | 223 | 5.0 | 12.0 | 0.00 | 0.00 | 0.00 | 58 | 1010.5 |
| 20260503235023 | 52 | 301 | 1.0 | 13.0 | 0.00 | 0.00 | 0.00 | 58 | 1010.5 |
| 20260503234523 | 52 | 205 | 4.0 | 15.0 | 0.00 | 0.00 | 0.00 | 57 | 1010.7 |
| 20260503234023 | 52 | 271 | 6.0 | 15.0 | 0.00 | 0.00 | 0.00 | 56 | 1010.5 |
| 20260503233523 | 52 | 203 | 4.0 | 17.0 | 0.00 | 0.00 | 0.00 | 57 | 1010.4 |
| 20260503233022 | 52 | 336 | 6.0 | 17.0 | 0.00 | 0.00 | 0.00 | 55 | 1010.5 |
| 20260503232522 | 52 | 177 | 2.0 | 17.0 | 0.00 | 0.00 | 0.00 | 54 | 1010.4 |
| 20260503232022 | 52 | 214 | 3.0 | 10.0 | 0.00 | 0.00 | 0.00 | 54 | 1010.2 |
| 20260503231522 | 53 | 219 | 3.0 | 13.0 | 0.00 | 0.00 | 0.00 | 54 | 1010.2 |
| 20260503231021 | 53 | 264 | 5.0 | 14.0 | 0.00 | 0.00 | 0.00 | 53 | 1010.3 |
| 20260503230521 | 53 | 248 | 4.0 | 16.0 | 0.00 | 0.00 | 0.00 | 53 | 1010.2 |
| 20260503230021 | 52 | 51 | 6.0 | 17.0 | 0.00 | 0.00 | 0.00 | 53 | 1010.2 |
| 20260503225742 | 52 | 246 | 7.0 | 17.0 | 0.00 | 0.00 | 0.00 | 53 | 1010.2 |
| 20260503225021 | 53 | 249 | 14.0 | 19.0 | 0.00 | 0.00 | 0.00 | 53 | 1010.6 |
| 20260503224521 | 53 | 222 | 2.0 | 23.0 | 0.00 | 0.00 | 0.00 | 53 | 1010.2 |
| 20260503224022 | 53 | 217 | 5.0 | 23.0 | 0.00 | 0.00 | 0.00 | 52 | 1010.3 |
| 20260503223520 | 53 | 204 | 17.0 | 23.0 | 0.00 | 0.00 | 0.00 | 53 | 1010.4 |
| 20260503223020 | 53 | 228 | 6.0 | 21.0 | 0.00 | 0.00 | 0.00 | 52 | 1010.1 |
| 20260503222520 | 53 | 206 | 7.0 | 21.0 | 0.00 | 0.00 | 0.00 | 52 | 1010.2 |
| 20260503222020 | 53 | 223 | 6.0 | 19.0 | 0.00 | 0.00 | 0.00 | 52 | 1009.9 |
| 20260503221520 | 53 | 202 | 11.0 | 18.0 | 0.00 | 0.00 | 0.00 | 53 | 1010.2 |
| 20260503221020 | 53 | 198 | 7.0 | 22.0 | 0.00 | 0.00 | 0.00 | 52 | 1010.2 |
| 20260503221006 | 53 | 272 | 5.0 | 22.0 | 0.00 | 0.00 | 0.00 | 52 | 1010.1 |
| 20260503220019 | 53 | 215 | 5.0 | 29.0 | 0.00 | 0.00 | 0.00 | 52 | 1010.2 |